Aviation Digital Data Service (ADDS)

Output produced by METARs form (1212 UTC 24 February 2018)
found at http://aviationweather.gov/adds/metars/
 
EFMI 241150Z AUTO 01005KT 290V080 9999 FEW021 M12/M17 Q1037
EFMI 241120Z AUTO 01004KT 270V090 9999 FEW018 M12/M17 Q1037
EFMI 241050Z AUTO 03005KT 340V110 9999 FEW017 M13/M17 Q1037
EFMI 241020Z AUTO 04006KT 330V140 9999 SCT015 M14/M18 Q1037
EFMI 240950Z AUTO VRB03KT 9999 FEW015 M15/M18 Q1037
EFMI 240920Z AUTO VRB03KT 9999 FEW014 M15/M19 Q1037
EFMI 240850Z AUTO VRB04KT CAVOK M16/M19 Q1037
EFMI 240820Z AUTO VRB03KT CAVOK M17/M19 Q1037
EFMI 240750Z AUTO VRB02KT CAVOK M17/M19 Q1037
EFMI 240720Z AUTO VRB03KT CAVOK M18/M20 Q1037
EFMI 240650Z AUTO VRB02KT CAVOK M18/M21 Q1037
EFMI 240620Z AUTO VRB01KT CAVOK M19/M21 Q1037
EFMI 240550Z AUTO VRB01KT CAVOK M20/M22 Q1037
EFMI 240520Z AUTO VRB01KT CAVOK M20/M22 Q1037
EFMI 240450Z AUTO 32001KT CAVOK M20/M22 Q1036
EFMI 240420Z AUTO VRB01KT CAVOK M20/M22 Q1036
EFMI 240350Z AUTO VRB01KT CAVOK M19/M21 Q1036
EFMI 240320Z AUTO VRB01KT CAVOK M19/M21 Q1036
EFMI 240250Z AUTO VRB01KT CAVOK M19/M21 Q1035
EFMI 240220Z AUTO VRB01KT 9999 -SHSN SKC M19/M20 Q1035
EFMI 240150Z AUTO VRB02KT CAVOK M18/M20 Q1035
EFMI 240120Z AUTO 35002KT CAVOK M18/M20 Q1035
EFMI 240050Z AUTO VRB02KT CAVOK M18/M20 Q1035
EFMI 240020Z AUTO VRB02KT 9999 -SHSN SKC M18/M20 Q1035
EFMI 232350Z AUTO VRB01KT CAVOK M17/M19 Q1035
EFMI 232320Z AUTO VRB01KT 9999 -SHSN SKC M17/M19 Q1034
EFMI 232250Z AUTO VRB01KT CAVOK M19/M21 Q1034
EFMI 232220Z AUTO 32001KT 9999 -SHSN SKC M19/M20 Q1034
EFMI 232150Z AUTO 32001KT 9999 -SHSN SKC M18/M19 Q1034
EFMI 232120Z AUTO 32002KT 9999 -SHSN SKC M17/M18 Q1033
EFMI 232050Z AUTO 36001KT CAVOK M16/M17 Q1033
EFMI 232020Z AUTO VRB01KT CAVOK M15/M17 Q1033
EFMI 231950Z AUTO VRB02KT CAVOK M15/M17 Q1033
EFMI 231920Z AUTO VRB02KT CAVOK M15/M17 Q1032
EFMI 231850Z AUTO VRB02KT CAVOK M15/M16 Q1032
EFMI 231820Z AUTO VRB03KT CAVOK M14/M16 Q1032
EFMI 231750Z AUTO VRB03KT CAVOK M14/M16 Q1032
EFMI 231720Z AUTO VRB03KT CAVOK M14/M16 Q1031
EFMI 231650Z AUTO VRB03KT CAVOK M13/M15 Q1031
EFMI 231620Z AUTO 35003KT CAVOK M13/M15 Q1031
EFMI 231550Z AUTO 32002KT CAVOK M13/M15 Q1031
EFMI 231520Z AUTO 01003KT CAVOK M12/M15 Q1031
EFMI 231450Z AUTO VRB02KT CAVOK M11/M15 Q1030
EFMI 231420Z AUTO 02003KT CAVOK M10/M15 Q1030
EFMI 231350Z AUTO VRB03KT CAVOK M10/M14 Q1030
EFMI 231320Z AUTO VRB04KT CAVOK M09/M14 Q1030
EFMI 231250Z AUTO VRB05KT 9999 FEW021 M09/M15 Q1030
EFMI 231220Z AUTO 02004KT 290V110 CAVOK M09/M14 Q1029
EFMI 231150Z AUTO VRB03KT CAVOK M10/M14 Q1029
EFMI 231120Z AUTO VRB03KT CAVOK M10/M15 Q1029
EFMI 231050Z AUTO 05004KT 360V150 CAVOK M11/M15 Q1029
EFMI 231020Z AUTO 05005KT 320V110 CAVOK M11/M15 Q1029
EFMI 230950Z AUTO 06004KT 350V110 CAVOK M12/M16 Q1029
EFMI 230920Z AUTO VRB02KT 9999 -SN SKC M12/M15 Q1029
EFMI 230850Z AUTO 07004KT 330V110 9999 -SN SKC M13/M15 Q1028
EFMI 230820Z AUTO VRB02KT 4900 -SN SCT033 M14/M16 Q1028
EFMI 230750Z AUTO 03002KT 8000 -SN OVC022 M15/M17 Q1028
EFMI 230720Z AUTO 03002KT 9000 -SN OVC022 M15/M17 Q1028
EFMI 230650Z AUTO VRB01KT 3500 -SN OVC022 M17/M19 Q1028
EFMI 230620Z AUTO 28001KT 2300 -SN OVC020 M18/M20 Q1027
EFMI 230550Z AUTO 00000KT 3300 -SN OVC016 M19/M21 Q1027
EFMI 230520Z AUTO 26001KT 1200 SN OVC018 M20/M22 Q1027
EFMI 230450Z AUTO 28001KT 2500 -SHSN OVC019 M20/M22 Q1027
EFMI 230420Z AUTO 28002KT 2300 SHSN FEW014 SCT024 BKN240 M20/M22 Q1027
EFMI 230350Z AUTO 00000KT 4200 -SHSN BR SKC M20/M22 Q1027
EFMI 230320Z AUTO 28003KT 5000 -SHSN BKN036 M19/M21 Q1027
EFMI 230250Z AUTO 27001KT 9999 -SHSN OVC039 M18/M20 Q1026
EFMI 230220Z AUTO 27001KT 9999 -SHSN OVC039 M18/M20 Q1026
EFMI 230150Z AUTO 27002KT 9999 OVC041 M19/M21 Q1026
EFMI 230120Z AUTO 27001KT 9999 -SN BKN041 M18/M20 Q1027
EFMI 230050Z AUTO 29001KT 9000 -SN BKN041 M18/M20 Q1027
EFMI 230020Z AUTO 28002KT 3100 -SN FEW038 M18/M20 Q1026